Time,TemperatureF,DewpointF,PressureIn,WindDirection,WindDirectionDegrees,WindSpeedMPH,WindSpeedGustMPH,Humidity,HourlyPrecipIn,Conditions,Clouds,dailyrainin,SoftwareType,DateUTC
2013-03-27 08:35:00,56.8,24.0,30.04,NE,47,2.0,2.0,28,0.00,,,0.00,Wunderground v.1.15,2013-03-27 15:35:00,
2013-03-27 08:40:00,57.2,24.3,30.04,NNE,30,1.0,2.0,28,0.00,,,0.00,Wunderground v.1.15,2013-03-27 15:40:00,
2013-03-27 08:45:00,57.6,24.7,30.04,NNE,14,1.0,1.0,28,0.00,,,0.00,Wunderground v.1.15,2013-03-27 15:45:00,
2013-03-27 08:55:00,58.4,24.5,30.04,North,9,1.0,2.0,27,0.00,,,0.00,Wunderground v.1.15,2013-03-27 15:55:00,
2013-03-27 09:00:00,58.6,24.7,30.05,East,97,1.0,1.0,27,0.00,,,0.00,Wunderground v.1.15,2013-03-27 16:00:00,
2013-03-27 09:10:00,59.4,24.5,30.05,NE,47,1.0,1.0,26,0.00,,,0.00,Wunderground v.1.15,2013-03-27 16:10:00,
2013-03-27 09:15:00,60.0,25.0,30.05,North,360,1.0,2.0,26,0.00,,,0.00,Wunderground v.1.15,2013-03-27 16:15:00,
2013-03-27 09:25:00,61.2,25.1,30.05,ENE,78,1.0,2.0,25,0.00,,,0.00,Wunderground v.1.15,2013-03-27 16:25:00,
2013-03-27 09:30:00,61.2,25.1,30.05,NNE,33,1.0,1.0,25,0.00,,,0.00,Wunderground v.1.15,2013-03-27 16:30:00,
2013-03-27 09:40:00,61.7,24.5,30.05,ENE,60,1.0,3.0,24,0.00,,,0.00,Wunderground v.1.15,2013-03-27 16:40:00,
2013-03-27 09:45:00,61.8,24.6,30.05,ENE,72,2.0,3.0,24,0.00,,,0.00,Wunderground v.1.15,2013-03-27 16:45:00,
2013-03-27 09:55:00,62.7,25.3,30.05,NNW,345,1.0,2.0,24,0.00,,,0.00,Wunderground v.1.15,2013-03-27 16:55:00,
2013-03-27 10:00:00,62.9,25.5,30.05,ENE,57,2.0,2.0,24,0.00,,,0.00,Wunderground v.1.15,2013-03-27 17:00:00,
2013-03-27 10:10:00,63.9,25.3,30.05,SSW,207,1.0,2.0,23,0.00,,,0.00,Wunderground v.1.15,2013-03-27 17:10:00,
2013-03-27 10:15:00,64.0,26.4,30.04,East,84,1.0,4.0,24,0.00,,,0.00,Wunderground v.1.15,2013-03-27 17:15:00,
2013-03-27 10:25:00,65.0,27.3,30.04,ENE,77,2.0,3.0,24,0.00,,,0.00,Wunderground v.1.15,2013-03-27 17:25:00,
2013-03-27 10:30:00,65.6,25.7,30.04,ENE,68,1.0,1.0,22,0.00,,,0.00,Wunderground v.1.15,2013-03-27 17:30:00,
2013-03-27 10:40:00,66.9,25.7,30.04,East,96,2.0,2.0,21,0.00,,,0.00,Wunderground v.1.15,2013-03-27 17:40:00,
2013-03-27 10:45:00,67.4,27.2,30.04,ESE,103,2.0,2.0,22,0.00,,,0.00,Wunderground v.1.15,2013-03-27 17:45:00,
2013-03-27 10:55:00,68.2,26.7,30.04,South,169,3.0,3.0,21,0.00,,,0.00,Wunderground v.1.15,2013-03-27 17:55:00,
2013-03-27 11:00:00,69.2,27.6,30.04,SSW,205,2.0,2.0,21,0.00,,,0.00,Wunderground v.1.15,2013-03-27 18:00:00,
2013-03-27 11:10:00,69.9,27.0,30.03,WSW,237,2.0,2.0,20,0.00,,,0.00,Wunderground v.1.15,2013-03-27 18:10:00,
2013-03-27 11:15:00,70.3,27.3,30.03,SSE,165,2.0,5.0,20,0.00,,,0.00,Wunderground v.1.15,2013-03-27 18:15:00,
2013-03-27 11:25:00,70.7,27.6,30.03,ENE,68,2.0,4.0,20,0.00,,,0.00,Wunderground v.1.15,2013-03-27 18:25:00,
2013-03-27 11:30:00,71.2,26.8,30.02,SSE,160,2.0,2.0,19,0.00,,,0.00,Wunderground v.1.15,2013-03-27 18:30:00,
2013-03-27 11:40:00,71.7,27.2,30.02,WSW,243,3.0,3.0,19,0.00,,,0.00,Wunderground v.1.15,2013-03-27 18:40:00,
2013-03-27 11:45:00,72.0,27.5,30.02,East,92,3.0,3.0,19,0.00,,,0.00,Wunderground v.1.15,2013-03-27 18:45:00,
2013-03-27 11:55:00,72.5,27.9,30.02,WSW,256,3.0,7.0,19,0.00,,,0.00,Wunderground v.1.15,2013-03-27 18:55:00,
2013-03-27 12:00:00,72.8,28.1,30.01,SE,137,3.0,3.0,19,0.00,,,0.00,Wunderground v.1.15,2013-03-27 19:00:00,
2013-03-27 12:10:00,73.3,22.8,30.01,South,182,7.0,8.0,15,0.00,,,0.00,Wunderground v.1.15,2013-03-27 19:10:00,
2013-03-27 12:15:00,73.3,24.4,30.01,SE,145,10.0,10.0,16,0.00,,,0.00,Wunderground v.1.15,2013-03-27 19:15:00,
2013-03-27 12:25:00,73.9,21.7,30.01,South,174,9.0,11.0,14,0.00,,,0.00,Wunderground v.1.15,2013-03-27 19:25:00,
2013-03-27 12:30:00,74.2,21.9,30.01,SSW,201,10.0,10.0,14,0.00,,,0.00,Wunderground v.1.15,2013-03-27 19:30:00,
2013-03-27 12:40:00,74.4,20.3,30.00,SSE,160,9.0,9.0,13,0.00,,,0.00,Wunderground v.1.15,2013-03-27 19:40:00,
2013-03-27 12:45:00,73.9,19.9,30.01,SSE,161,10.0,10.0,13,0.00,,,0.00,Wunderground v.1.15,2013-03-27 19:45:00,
2013-03-27 12:55:00,72.8,22.4,30.00,South,177,9.0,10.0,15,0.00,,,0.00,Wunderground v.1.15,2013-03-27 19:55:00,
2013-03-27 13:00:00,72.6,22.3,30.00,SSW,206,8.0,8.0,15,0.00,,,0.00,Wunderground v.1.15,2013-03-27 20:00:00,
2013-03-27 13:10:00,72.6,22.3,30.00,SSW,207,8.0,8.0,15,0.00,,,0.00,Wunderground v.1.15,2013-03-27 20:10:00,
2013-03-27 13:15:00,72.6,22.3,30.00,South,173,7.0,8.0,15,0.00,,,0.00,Wunderground v.1.15,2013-03-27 20:15:00,
2013-03-27 13:25:00,71.9,23.2,30.00,SE,145,8.0,8.0,16,0.00,,,0.00,Wunderground v.1.15,2013-03-27 20:25:00,
2013-03-27 13:30:00,72.0,23.3,30.00,SSW,194,8.0,8.0,16,0.00,,,0.00,Wunderground v.1.15,2013-03-27 20:30:00,
2013-03-27 13:40:00,72.5,23.7,30.00,SSE,153,6.0,8.0,16,0.00,,,0.00,Wunderground v.1.15,2013-03-27 20:40:00,
2013-03-27 13:45:00,72.5,22.2,29.99,SSE,162,7.0,8.0,15,0.00,,,0.00,Wunderground v.1.15,2013-03-27 20:45:00,
2013-03-27 13:55:00,72.7,23.9,29.99,South,184,8.0,8.0,16,0.00,,,0.00,Wunderground v.1.15,2013-03-27 20:55:00,
2013-03-27 14:00:00,72.5,23.7,29.99,SSW,201,7.0,9.0,16,0.00,,,0.00,Wunderground v.1.15,2013-03-27 21:00:00,
2013-03-27 14:10:00,72.7,22.3,29.99,South,170,8.0,9.0,15,0.00,,,0.00,Wunderground v.1.15,2013-03-27 21:10:00,
2013-03-27 14:15:00,72.8,22.4,29.99,South,169,8.0,9.0,15,0.00,,,0.00,Wunderground v.1.15,2013-03-27 21:15:00,
2013-03-27 14:25:00,73.0,22.6,29.99,South,174,7.0,7.0,15,0.00,,,0.00,Wunderground v.1.15,2013-03-27 21:25:00,
2013-03-27 14:30:00,72.7,20.7,29.98,South,184,8.0,9.0,14,0.00,,,0.00,Wunderground v.1.15,2013-03-27 21:30:00,
2013-03-27 14:40:00,72.4,22.1,29.98,SE,124,9.0,9.0,15,0.00,,,0.00,Wunderground v.1.15,2013-03-27 21:40:00,
2013-03-27 14:45:00,72.4,23.6,29.98,SSW,202,8.0,9.0,16,0.00,,,0.00,Wunderground v.1.15,2013-03-27 21:45:00,
2013-03-27 14:55:00,72.2,21.9,29.98,SSE,167,8.0,8.0,15,0.00,,,0.00,Wunderground v.1.15,2013-03-27 21:55:00,
2013-03-27 15:00:00,72.3,22.0,29.98,South,180,7.0,7.0,15,0.00,,,0.00,Wunderground v.1.15,2013-03-27 22:00:00,
2013-03-27 15:10:00,71.9,21.7,29.98,South,188,8.0,8.0,15,0.00,,,0.00,Wunderground v.1.15,2013-03-27 22:10:00,
2013-03-27 15:15:00,72.3,22.0,29.98,South,184,7.0,8.0,15,0.00,,,0.00,Wunderground v.1.15,2013-03-27 22:15:00,
2013-03-27 15:25:00,72.4,22.1,29.98,SSW,200,8.0,8.0,15,0.00,,,0.00,Wunderground v.1.15,2013-03-27 22:25:00,
2013-03-27 15:30:00,72.7,20.7,29.98,SSE,165,9.0,9.0,14,0.00,,,0.00,Wunderground v.1.15,2013-03-27 22:30:00,
2013-03-27 15:40:00,72.0,21.8,29.98,SW,231,8.0,8.0,15,0.00,,,0.00,Wunderground v.1.15,2013-03-27 22:40:00,
2013-03-27 15:45:00,71.4,21.3,29.98,SSW,199,8.0,8.0,15,0.00,,,0.00,Wunderground v.1.15,2013-03-27 22:45:00,
2013-03-27 15:55:00,70.9,22.4,29.98,SSW,202,9.0,9.0,16,0.00,,,0.00,Wunderground v.1.15,2013-03-27 22:55:00,
2013-03-27 16:00:00,71.1,21.1,29.98,SW,214,8.0,8.0,15,0.00,,,0.00,Wunderground v.1.15,2013-03-27 23:00:00,
2013-03-27 16:10:00,70.9,20.9,29.98,SSW,213,8.0,9.0,15,0.00,,,0.00,Wunderground v.1.15,2013-03-27 23:10:00,
2013-03-27 16:15:00,70.8,20.8,29.98,SSE,165,8.0,9.0,15,0.00,,,0.00,Wunderground v.1.15,2013-03-27 23:15:00,
2013-03-27 16:25:00,70.4,20.5,29.98,South,186,7.0,8.0,15,0.00,,,0.00,Wunderground v.1.15,2013-03-27 23:25:00,
2013-03-27 16:30:00,70.5,20.6,29.98,SSE,168,7.0,7.0,15,0.00,,,0.00,Wunderground v.1.15,2013-03-27 23:30:00,
2013-03-27 16:40:00,70.1,20.3,29.98,SSW,200,6.0,6.0,15,0.00,,,0.00,Wunderground v.1.15,2013-03-27 23:40:00,
2013-03-27 16:45:00,69.8,21.5,29.99,SW,214,6.0,10.0,16,0.00,,,0.00,Wunderground v.1.15,2013-03-27 23:45:00,
2013-03-27 16:55:00,69.7,21.5,29.98,SW,214,8.0,13.0,16,0.00,,,0.00,Wunderground v.1.15,2013-03-27 23:55:00,
2013-03-27 17:00:00,69.9,21.6,29.98,SSE,162,8.0,11.0,16,0.00,,,0.00,Wunderground v.1.15,2013-03-28 00:00:00,
2013-03-27 17:10:00,69.9,21.6,29.98,SW,232,8.0,12.0,16,0.00,,,0.00,Wunderground v.1.15,2013-03-28 00:10:00,
2013-03-27 17:15:00,69.6,21.4,29.99,SSW,198,8.0,12.0,16,0.00,,,0.00,Wunderground v.1.15,2013-03-28 00:15:00,
2013-03-27 17:25:00,68.9,22.2,29.99,SSW,195,8.0,9.0,17,0.00,,,0.00,Wunderground v.1.15,2013-03-28 00:25:00,
2013-03-27 17:30:00,68.9,22.2,29.99,WSW,245,8.0,9.0,17,0.00,,,0.00,Wunderground v.1.15,2013-03-28 00:30:00,
2013-03-27 17:40:00,69.0,22.3,29.99,SSE,167,7.0,7.0,17,0.00,,,0.00,Wunderground v.1.15,2013-03-28 00:40:00,
2013-03-27 17:45:00,69.2,22.5,29.99,SSW,208,7.0,7.0,17,0.00,,,0.00,Wunderground v.1.15,2013-03-28 00:45:00,
2013-03-27 17:55:00,68.4,23.2,29.99,South,171,6.0,7.0,18,0.00,,,0.00,Wunderground v.1.15,2013-03-28 00:55:00,
2013-03-27 18:00:00,68.0,22.9,29.99,SSE,163,4.0,5.0,18,0.00,,,0.00,Wunderground v.1.15,2013-03-28 01:00:00,
2013-03-27 18:10:00,67.4,23.7,29.99,SW,217,6.0,6.0,19,0.00,,,0.00,Wunderground v.1.15,2013-03-28 01:10:00,
2013-03-27 18:15:00,67.1,23.4,30.00,SSW,212,5.0,6.0,19,0.00,,,0.00,Wunderground v.1.15,2013-03-28 01:15:00,
2013-03-27 18:25:00,66.6,24.2,30.00,SSE,159,4.0,5.0,20,0.00,,,0.00,Wunderground v.1.15,2013-03-28 01:25:00,
2013-03-27 18:30:00,66.4,24.1,30.00,SSW,198,4.0,4.0,20,0.00,,,0.00,Wunderground v.1.15,2013-03-28 01:30:00,
2013-03-27 18:40:00,66.0,23.7,30.00,South,169,4.0,4.0,20,0.00,,,0.00,Wunderground v.1.15,2013-03-28 01:40:00,
2013-03-27 18:45:00,65.8,23.6,30.01,SSE,158,4.0,4.0,20,0.00,,,0.00,Wunderground v.1.15,2013-03-28 01:45:00,
2013-03-27 18:55:00,65.0,24.1,30.00,SSE,166,2.0,4.0,21,0.00,,,0.00,Wunderground v.1.15,2013-03-28 01:55:00,
2013-03-27 19:00:00,64.7,23.8,30.01,SSE,167,3.0,3.0,21,0.00,,,0.00,Wunderground v.1.15,2013-03-28 02:00:00,
2013-03-27 19:10:00,64.3,23.5,30.01,SE,143,3.0,3.0,21,0.00,,,0.00,Wunderground v.1.15,2013-03-28 02:10:00,
2013-03-27 19:15:00,63.9,23.2,30.01,SE,146,2.0,3.0,21,0.00,,,0.00,Wunderground v.1.15,2013-03-28 02:15:00,
2013-03-27 19:25:00,63.6,24.0,30.01,SE,136,3.0,3.0,22,0.00,,,0.00,Wunderground v.1.15,2013-03-28 02:25:00,
2013-03-27 19:30:00,63.4,23.8,30.01,SSE,164,2.0,2.0,22,0.00,,,0.00,Wunderground v.1.15,2013-03-28 02:30:00,
2013-03-27 19:40:00,62.9,23.4,30.02,SSE,161,2.0,2.0,22,0.00,,,0.00,Wunderground v.1.15,2013-03-28 02:40:00,
2013-03-27 19:45:00,62.7,23.3,30.02,SSW,200,2.0,2.0,22,0.00,,,0.00,Wunderground v.1.15,2013-03-28 02:45:00,
2013-03-27 19:55:00,61.5,23.3,30.02,SW,227,0.0,1.0,23,0.00,,,0.00,Wunderground v.1.15,2013-03-28 02:55:00,
2013-03-27 20:00:00,60.1,23.1,30.02,SW,227,0.0,0.0,24,0.00,,,0.00,Wunderground v.1.15,2013-03-28 03:00:00,
2013-03-27 20:10:00,57.8,23.1,30.02,West,278,0.0,0.0,26,0.00,,,0.00,Wunderground v.1.15,2013-03-28 03:10:00,
2013-03-27 20:15:00,57.0,22.4,30.03,WNW,288,0.0,2.0,26,0.00,,,0.00,Wunderground v.1.15,2013-03-28 03:15:00,
2013-03-27 20:25:00,55.4,22.8,30.03,WNW,299,1.0,1.0,28,0.00,,,0.00,Wunderground v.1.15,2013-03-28 03:25:00,
2013-03-27 20:30:00,54.4,22.8,30.03,WNW,300,1.0,2.0,29,0.00,,,0.00,Wunderground v.1.15,2013-03-28 03:30:00,
2013-03-27 20:40:00,53.3,22.6,30.03,WNW,297,1.0,1.0,30,0.00,,,0.00,Wunderground v.1.15,2013-03-28 03:40:00,
2013-03-27 20:45:00,52.9,22.3,30.03,WNW,298,1.0,1.0,30,0.00,,,0.00,Wunderground v.1.15,2013-03-28 03:45:00,